Kidron, Ohio
Current Conditions -  °F | °C
As of 1:56 PM on Monday 20 Oct 2014 (Local Time) from KBJJ Reporting Station
Overcast Overcast  
Wind Chill: 59°   Ceiling: 8000
Heat Index: 59°   Visibility: 10mi
Dew Point: 44°   Wind: 12mph
Humidity: 58%   Direction: 200°SSW
Pressure: 29.86"   Gusts: NA
Location:  40.74°N, 81.74°W
Report Text: KBJJ 201756Z AUTO 20010KT 10SM BKN080 OVC100 15/07 A2986 RMK AO2 RAB17E49 SLP114 P0000 60000 T01500067 10150 20078 58025 TSNO
Loading
Personal Weather Stations






























Interactive Weather Map New forecast layout! Learn more

10-Day Weather Forecast

Advertisements
Track Severe Weather on mobile